createdAt,value
2022-07-25T00:00:43.873Z,98731.44
2022-07-25T00:01:48.867Z,98740.38
2022-07-25T00:02:53.543Z,98733.63
2022-07-25T00:03:58.121Z,98733.91
2022-07-25T00:05:01.521Z,98733.22
2022-07-25T00:06:06.295Z,98729.78
2022-07-25T00:07:17.010Z,98733.34
2022-07-25T00:08:21.294Z,98737.75
2022-07-25T00:09:24.935Z,98730.88
2022-07-25T00:10:30.253Z,98730.72
2022-07-25T00:11:33.934Z,98730.88
2022-07-25T00:12:38.515Z,98732.50
2022-07-25T00:13:41.663Z,98734.19
2022-07-25T00:14:45.970Z,98731.69
2022-07-25T00:15:49.352Z,98731.69
2022-07-25T00:16:53.735Z,98722.16
2022-07-25T00:17:58.190Z,98718.72
2022-07-25T00:19:02.500Z,98722.31
2022-07-25T00:20:06.955Z,98723.28
2022-07-25T00:21:11.363Z,98724.50
2022-07-25T00:22:14.575Z,98724.75
2022-07-25T00:23:18.961Z,98724.09
2022-07-25T00:24:22.472Z,98725.06
2022-07-25T00:25:26.941Z,98721.59
2022-07-25T00:26:30.189Z,98719.13
2022-07-25T00:27:34.456Z,98724.34
2022-07-25T00:28:38.035Z,98715.69
2022-07-25T00:29:42.254Z,98723.53
2022-07-25T00:30:45.963Z,98712.25
2022-07-25T00:31:50.517Z,98720.09
2022-07-25T00:32:53.861Z,98711.56
2022-07-25T00:33:59.485Z,98717.72
2022-07-25T00:35:02.836Z,98716.22
2022-07-25T00:36:08.201Z,98711.16
2022-07-25T00:37:11.484Z,98709.47
2022-07-25T00:38:15.768Z,98710.44
2022-07-25T00:39:19.075Z,98714.28
2022-07-25T00:40:23.523Z,98711.81
2022-07-25T00:41:26.823Z,98708.63
2022-07-25T00:42:31.273Z,98712.34
2022-07-25T00:43:34.531Z,98701.22
2022-07-25T00:44:38.920Z,98705.59
2022-07-25T00:45:43.193Z,98704.75
2022-07-25T00:46:46.457Z,98702.97
2022-07-25T00:47:50.903Z,98704.09
2022-07-25T00:48:54.311Z,98701.63
2022-07-25T00:50:00.227Z,98703.41
2022-07-25T00:51:03.668Z,98700.09
2022-07-25T00:52:08.491Z,98695.81
2022-07-25T00:53:12.084Z,98699.50
2022-07-25T00:54:16.812Z,98700.88
2022-07-25T00:55:20.584Z,98697.84
2022-07-25T00:56:25.287Z,98702.63
2022-07-25T00:57:28.731Z,98704.56
2022-07-25T00:58:33.177Z,98706.50
2022-07-25T00:59:36.583Z,98708.41
2022-07-25T01:00:40.986Z,98706.91
2022-07-25T01:01:45.795Z,98701.69
2022-07-25T01:02:50.897Z,98704.28
2022-07-25T01:03:54.243Z,98704.28
2022-07-25T01:05:00.094Z,98699.16
2022-07-25T01:06:03.598Z,98705.94
2022-07-25T01:07:08.526Z,98706.06
2022-07-25T01:08:12.300Z,98712.13
2022-07-25T01:09:17.608Z,98702.06
2022-07-25T01:10:21.211Z,98704.13
2022-07-25T01:11:26.044Z,98700.09
2022-07-25T01:12:29.292Z,98701.22
2022-07-25T01:13:34.994Z,98705.72
2022-07-25T01:14:39.354Z,98702.69
2022-07-25T01:15:43.741Z,98703.09
2022-07-25T01:16:48.261Z,98705.28
2022-07-25T01:17:52.467Z,98702.66
2022-07-25T01:18:56.822Z,98700.31
2022-07-25T01:20:01.464Z,98697.25
2022-07-25T01:21:08.016Z,98701.22
2022-07-25T01:22:11.322Z,98700.63
2022-07-25T01:23:15.572Z,98699.97
2022-07-25T01:24:18.834Z,98705.19
2022-07-25T01:25:23.576Z,98700.63
2022-07-25T01:26:28.084Z,98703.69
2022-07-25T01:27:32.305Z,98696.44
2022-07-25T01:28:36.748Z,98700.56
2022-07-25T01:29:39.883Z,98703.88
2022-07-25T01:30:44.638Z,98704.44
2022-07-25T01:31:48.171Z,98704.31
2022-07-25T01:32:52.857Z,98703.34
2022-07-25T01:33:56.054Z,98692.06
2022-07-25T01:35:00.507Z,98699.09
2022-07-25T01:36:04.297Z,98701.94
2022-07-25T01:37:10.336Z,98697.84
2022-07-25T01:38:14.268Z,98696.56
2022-07-25T01:39:18.664Z,98695.41
2022-07-25T01:40:22.112Z,98701.59
2022-07-25T01:41:26.412Z,98691.16
2022-07-25T01:42:29.727Z,98703.25
2022-07-25T01:43:35.616Z,98689.22
2022-07-25T01:44:39.072Z,98692.56
2022-07-25T01:45:43.471Z,98699.44
2022-07-25T01:46:47.142Z,98694.88
2022-07-25T01:47:51.794Z,98700.97
2022-07-25T01:48:56.270Z,98696.81
2022-07-25T01:49:59.614Z,98689.38
2022-07-25T01:51:03.821Z,98698.31
2022-07-25T01:52:08.942Z,98686.31
2022-07-25T01:53:13.370Z,98692.38
2022-07-25T01:54:16.721Z,98693.34
2022-07-25T01:55:21.870Z,98685.50
2022-07-25T01:56:26.949Z,98685.50
2022-07-25T01:57:33.007Z,98685.34
2022-07-25T01:58:52.029Z,98685.25
2022-07-25T01:59:56.533Z,98680.84
2022-07-25T02:01:01.043Z,98687.88
2022-07-25T02:02:05.475Z,98694.28
2022-07-25T02:03:27.303Z,98692.75
2022-07-25T02:04:31.707Z,98689.69
2022-07-25T02:05:34.950Z,98689.03
2022-07-25T02:06:41.683Z,98691.06
2022-07-25T02:07:46.565Z,98689.78
2022-07-25T02:08:50.900Z,98692.66
2022-07-25T02:09:56.877Z,98688.38
2022-07-25T02:11:02.044Z,98684.00
2022-07-25T02:12:07.742Z,98687.19
2022-07-25T02:13:11.043Z,98688.28
2022-07-25T02:14:16.195Z,98684.94
2022-07-25T02:15:19.759Z,98691.13
2022-07-25T02:16:29.146Z,98684.00
2022-07-25T02:17:34.101Z,98685.78
2022-07-25T02:18:37.308Z,98688.38
2022-07-25T02:19:42.279Z,98686.63
2022-07-25T02:20:45.639Z,98684.94
2022-07-25T02:21:50.013Z,98684.13
2022-07-25T02:22:54.577Z,98680.81
2022-07-25T02:23:58.719Z,98692.31
2022-07-25T02:25:01.892Z,98688.31
2022-07-25T02:26:06.230Z,98690.22
2022-07-25T02:27:09.511Z,98684.16
2022-07-25T02:28:14.069Z,98684.31
2022-07-25T02:29:18.246Z,98689.63
2022-07-25T02:30:25.211Z,98683.84
2022-07-25T02:31:29.548Z,98686.47
2022-07-25T02:32:32.876Z,98683.72
2022-07-25T02:33:37.458Z,98690.47
2022-07-25T02:34:40.786Z,98690.34
2022-07-25T02:35:45.021Z,98683.47
2022-07-25T02:36:48.235Z,98681.69
2022-07-25T02:37:52.612Z,98683.47
2022-07-25T02:38:57.190Z,98685.94
2022-07-25T02:40:01.483Z,98688.41
2022-07-25T02:41:05.520Z,98689.25
2022-07-25T02:42:09.759Z,98688.41
2022-07-25T02:43:13.071Z,98683.34
2022-07-25T02:44:19.514Z,98683.47
2022-07-25T02:45:23.070Z,98686.09
2022-07-25T02:46:27.354Z,98682.38
2022-07-25T02:47:30.512Z,98683.19
2022-07-25T02:48:34.800Z,98684.31
2022-07-25T02:49:37.920Z,98687.28
2022-07-25T02:50:42.347Z,98689.44
2022-07-25T02:51:45.518Z,98694.91
2022-07-25T02:52:49.835Z,98694.22
2022-07-25T02:53:58.295Z,98691.59
2022-07-25T02:55:09.226Z,98689.81
2022-07-25T02:56:14.410Z,98691.84
2022-07-25T02:57:18.046Z,98689.63
2022-07-25T02:58:22.222Z,98696.50
2022-07-25T02:59:25.311Z,98690.47
2022-07-25T03:00:37.354Z,98686.91
2022-07-25T03:01:40.657Z,98689.38
2022-07-25T03:02:44.900Z,98692.00
2022-07-25T03:03:48.212Z,98694.59
2022-07-25T03:04:52.727Z,98688.41
2022-07-25T03:05:56.980Z,98695.41
2022-07-25T03:07:00.100Z,98694.47
2022-07-25T03:08:04.306Z,98697.06
2022-07-25T03:09:07.430Z,98694.34
2022-07-25T03:10:15.387Z,98689.81
2022-07-25T03:11:19.490Z,98698.34
2022-07-25T03:12:22.793Z,98689.59
2022-07-25T03:13:27.181Z,98687.81
2022-07-25T03:14:30.601Z,98691.22
2022-07-25T03:15:34.791Z,98690.28
2022-07-25T03:16:37.930Z,98686.72
2022-07-25T03:17:42.331Z,98685.75
2022-07-25T03:18:47.189Z,98684.09
2022-07-25T03:19:50.393Z,98687.53
2022-07-25T03:20:54.601Z,98688.34
2022-07-25T03:21:57.779Z,98685.63
2022-07-25T03:23:02.020Z,98689.75
2022-07-25T03:24:05.634Z,98680.16
2022-07-25T03:25:15.912Z,98686.47
2022-07-25T03:26:27.259Z,98680.81
2022-07-25T03:27:30.463Z,98681.75
2022-07-25T03:28:34.635Z,98685.28
2022-07-25T03:29:37.729Z,98681.75
2022-07-25T03:30:41.884Z,98688.50
2022-07-25T03:31:45.140Z,98687.53
2022-07-25T03:32:49.620Z,98684.81
2022-07-25T03:33:52.819Z,98679.47
2022-07-25T03:34:57.380Z,98684.41
2022-07-25T03:36:01.579Z,98680.72
2022-07-25T03:37:06.578Z,98687.34
2022-07-25T03:38:09.822Z,98683.66
2022-07-25T03:39:15.019Z,98682.47
2022-07-25T03:40:18.506Z,98681.41
2022-07-25T03:41:22.809Z,98681.94
2022-07-25T03:42:31.028Z,98680.75
2022-07-25T03:43:38.146Z,98677.88
2022-07-25T03:44:41.260Z,98676.66
2022-07-25T03:45:45.883Z,98683.41
2022-07-25T03:46:50.341Z,98673.56
2022-07-25T03:47:53.659Z,98674.91
2022-07-25T03:48:57.932Z,98672.88
2022-07-25T03:50:01.371Z,98675.09
2022-07-25T03:51:07.221Z,98682.56
2022-07-25T03:52:10.768Z,98676.22
2022-07-25T03:53:15.176Z,98675.97
2022-07-25T03:54:18.315Z,98673.94
2022-07-25T03:55:23.209Z,98672.81
2022-07-25T03:56:27.203Z,98672.28
2022-07-25T03:57:32.946Z,98664.06
2022-07-25T03:58:36.428Z,98665.06
2022-07-25T03:59:40.896Z,98663.56
2022-07-25T04:00:44.166Z,98662.19
2022-07-25T04:01:50.472Z,98669.22
2022-07-25T04:02:55.249Z,98664.28
2022-07-25T04:03:58.657Z,98658.41
2022-07-25T04:05:02.936Z,98659.50
2022-07-25T04:06:06.507Z,98653.59
2022-07-25T04:07:10.903Z,98644.06
2022-07-25T04:08:14.635Z,98647.94
2022-07-25T04:09:18.887Z,98645.72
2022-07-25T04:10:22.341Z,98653.16
2022-07-25T04:11:26.622Z,98644.78
2022-07-25T04:12:29.787Z,98647.56
2022-07-25T04:13:35.459Z,98643.13
2022-07-25T04:14:38.740Z,98643.25
2022-07-25T04:15:42.960Z,98638.00
2022-07-25T04:16:46.215Z,98647.50
2022-07-25T04:17:50.529Z,98639.88
2022-07-25T04:18:53.597Z,98638.22
2022-07-25T04:19:57.910Z,98636.50
2022-07-25T04:21:01.078Z,98638.13
2022-07-25T04:22:05.288Z,98640.84
2022-07-25T04:23:08.478Z,98638.31
2022-07-25T04:24:12.684Z,98638.28
2022-07-25T04:25:16.230Z,98643.78
2022-07-25T04:26:20.737Z,98636.81
2022-07-25T04:27:25.129Z,98647.41
2022-07-25T04:28:28.433Z,98653.69
2022-07-25T04:29:34.193Z,98643.34
2022-07-25T04:30:37.742Z,98645.91
2022-07-25T04:31:42.131Z,98647.59
2022-07-25T04:32:45.540Z,98650.16
2022-07-25T04:33:49.868Z,98652.72
2022-07-25T04:34:55.684Z,98657.34
2022-07-25T04:36:00.509Z,98656.78
2022-07-25T04:37:03.900Z,98655.34
2022-07-25T04:38:12.018Z,98653.91
2022-07-25T04:39:15.792Z,98653.94
2022-07-25T04:40:20.235Z,98656.81
2022-07-25T04:41:24.388Z,98657.19
2022-07-25T04:42:28.184Z,98660.81
2022-07-25T04:43:32.663Z,98665.63
2022-07-25T04:44:38.321Z,98663.53
2022-07-25T04:45:41.721Z,98665.66
2022-07-25T04:46:46.032Z,98657.19
2022-07-25T04:47:49.207Z,98661.00
2022-07-25T04:48:53.601Z,98654.13
2022-07-25T04:49:56.807Z,98656.97
2022-07-25T04:51:01.311Z,98655.22
2022-07-25T04:52:04.767Z,98658.88
2022-07-25T04:53:08.997Z,98645.94
2022-07-25T04:54:15.754Z,98659.91
2022-07-25T04:55:19.028Z,98655.00
2022-07-25T04:56:23.329Z,98657.69
2022-07-25T04:57:26.550Z,98652.78
2022-07-25T04:58:30.906Z,98651.47
2022-07-25T04:59:34.248Z,98653.63
2022-07-25T05:00:40.158Z,98656.59
2022-07-25T05:01:43.569Z,98653.50
2022-07-25T05:02:48.136Z,98655.78
2022-07-25T05:03:51.168Z,98653.50
2022-07-25T05:04:55.494Z,98653.84
2022-07-25T05:06:00.034Z,98654.19
2022-07-25T05:07:03.191Z,98650.25
2022-07-25T05:08:07.657Z,98655.69
2022-07-25T05:09:10.849Z,98646.31
2022-07-25T05:10:14.990Z,98648.44
2022-07-25T05:11:19.997Z,98645.69
2022-07-25T05:12:23.026Z,98642.09
2022-07-25T05:13:27.212Z,98642.75
2022-07-25T05:14:30.389Z,98640.91
2022-07-25T05:15:34.546Z,98643.38
2022-07-25T05:16:39.111Z,98638.44
2022-07-25T05:17:43.835Z,98643.88
2022-07-25T05:18:47.907Z,98634.47
2022-07-25T05:19:51.007Z,98632.00
2022-07-25T05:20:55.168Z,98636.59
2022-07-25T05:21:58.650Z,98633.94
2022-07-25T05:23:02.973Z,98633.25
2022-07-25T05:24:06.740Z,98629.44
2022-07-25T05:25:12.399Z,98626.13
2022-07-25T05:26:15.557Z,98630.13
2022-07-25T05:27:19.779Z,98628.88
2022-07-25T05:28:23.968Z,98631.25
2022-07-25T05:29:27.469Z,98625.53
2022-07-25T05:30:35.292Z,98622.22
2022-07-25T05:31:42.770Z,98627.53
2022-07-25T05:32:47.034Z,98627.47
2022-07-25T05:33:50.872Z,98625.13
2022-07-25T05:34:54.971Z,98624.19
2022-07-25T05:35:59.131Z,98617.22
2022-07-25T05:37:02.323Z,98615.22
2022-07-25T05:38:06.867Z,98621.81
2022-07-25T05:39:09.959Z,98622.66
2022-07-25T05:40:14.571Z,98621.47
2022-07-25T05:41:17.587Z,98622.66
2022-07-25T05:42:21.809Z,98624.44
2022-07-25T05:43:24.839Z,98624.19
2022-07-25T05:44:28.858Z,98618.22
2022-07-25T05:45:33.201Z,98621.97
2022-07-25T05:46:36.474Z,98619.16
2022-07-25T05:47:42.126Z,98616.78
2022-07-25T05:48:45.497Z,98612.34
2022-07-25T05:49:50.530Z,98618.09
2022-07-25T05:50:53.647Z,98622.63
2022-07-25T05:51:57.693Z,98615.50
2022-07-25T05:53:00.691Z,98623.09
2022-07-25T05:54:05.196Z,98619.81
2022-07-25T05:55:09.199Z,98616.75
2022-07-25T05:56:13.343Z,98619.41
2022-07-25T05:57:16.389Z,98623.28
2022-07-25T05:58:20.511Z,98618.75
2022-07-25T05:59:23.628Z,98616.03
2022-07-25T06:00:28.058Z,98611.69
2022-07-25T06:01:31.230Z,98621.44
2022-07-25T06:02:35.556Z,98612.13
2022-07-25T06:03:40.439Z,98614.28
2022-07-25T06:04:45.310Z,98612.13
2022-07-25T06:05:49.282Z,98612.44
2022-07-25T06:06:53.353Z,98613.34
2022-07-25T06:07:56.407Z,98610.34
2022-07-25T06:09:00.488Z,98611.78
2022-07-25T06:10:04.179Z,98606.84
2022-07-25T06:11:08.960Z,98602.69
2022-07-25T06:12:14.210Z,98601.88
2022-07-25T06:13:18.392Z,98599.34
2022-07-25T06:14:23.868Z,98605.19
2022-07-25T06:15:29.159Z,98599.03
2022-07-25T06:16:34.191Z,98600.00
2022-07-25T06:17:38.493Z,98600.50
2022-07-25T06:18:44.390Z,98598.16
2022-07-25T06:19:49.239Z,98610.03
2022-07-25T06:20:54.116Z,98603.63
2022-07-25T06:21:58.381Z,98604.91
2022-07-25T06:23:03.418Z,98606.66
2022-07-25T06:24:08.493Z,98598.28
2022-07-25T06:25:13.421Z,98599.22
2022-07-25T06:26:16.665Z,98595.97
2022-07-25T06:27:23.963Z,98587.09
2022-07-25T06:28:30.426Z,98594.84
2022-07-25T06:29:34.715Z,98589.00
2022-07-25T06:30:39.379Z,98588.94
2022-07-25T06:31:42.703Z,98576.22
2022-07-25T06:32:55.568Z,98579.50
2022-07-25T06:34:02.149Z,98583.09
2022-07-25T06:35:06.113Z,98579.13
2022-07-25T06:36:10.700Z,98577.59
2022-07-25T06:37:13.807Z,98586.38
2022-07-25T06:38:17.994Z,98573.50
2022-07-25T06:39:21.358Z,98575.84
2022-07-25T06:40:25.876Z,98575.31
2022-07-25T06:41:29.974Z,98574.41
2022-07-25T06:42:34.748Z,98571.59
2022-07-25T06:43:38.818Z,98574.34
2022-07-25T06:44:42.246Z,98570.00
2022-07-25T06:45:47.746Z,98568.03
2022-07-25T06:46:52.127Z,98579.09
2022-07-25T06:47:55.309Z,98576.25
2022-07-25T06:48:59.655Z,98570.00
2022-07-25T06:50:04.626Z,98566.97
2022-07-25T06:51:11.612Z,98570.00
2022-07-25T06:52:16.148Z,98570.44
2022-07-25T06:53:19.197Z,98577.03
2022-07-25T06:54:23.268Z,98575.00
2022-07-25T06:55:26.327Z,98575.09
2022-07-25T06:56:33.140Z,98575.75
2022-07-25T06:57:37.529Z,98563.75
2022-07-25T06:58:41.649Z,98566.22
2022-07-25T06:59:46.120Z,98569.50
2022-07-25T07:00:50.511Z,98569.25
2022-07-25T07:01:54.817Z,98571.19
2022-07-25T07:03:01.569Z,98567.16
2022-07-25T07:04:06.699Z,98561.06
2022-07-25T07:05:11.861Z,98561.66
2022-07-25T07:06:16.127Z,98559.47
2022-07-25T07:07:19.316Z,98560.78
2022-07-25T07:08:23.588Z,98557.91
2022-07-25T07:09:26.641Z,98559.00
2022-07-25T07:10:30.897Z,98561.78
2022-07-25T07:11:35.499Z,98561.66
2022-07-25T07:12:38.562Z,98555.00
2022-07-25T07:13:43.811Z,98560.97
2022-07-25T07:14:48.197Z,98557.22
2022-07-25T07:15:52.066Z,98562.09
2022-07-25T07:16:56.259Z,98559.44
2022-07-25T07:17:59.263Z,98565.41
2022-07-25T07:19:03.794Z,98565.41
2022-07-25T07:20:08.066Z,98562.41
2022-07-25T07:21:20.430Z,98559.47
2022-07-25T07:22:24.555Z,98561.69
2022-07-25T07:23:29.238Z,98560.66
2022-07-25T07:24:32.397Z,98559.63
2022-07-25T07:25:36.597Z,98552.66
2022-07-25T07:26:40.703Z,98554.28
2022-07-25T07:27:44.114Z,98553.19
2022-07-25T07:28:48.127Z,98552.66
2022-07-25T07:29:51.434Z,98555.09
2022-07-25T07:32:20.060Z,98565.09
2022-07-25T07:33:23.237Z,98557.25
2022-07-25T07:34:27.351Z,98567.78
2022-07-25T07:35:30.759Z,98556.97
2022-07-25T07:36:41.814Z,98549.16
2022-07-25T07:37:46.369Z,98550.25
2022-07-25T07:38:50.635Z,98554.81
2022-07-25T07:39:53.748Z,98549.69
2022-07-25T07:40:57.980Z,98545.66
2022-07-25T07:42:02.047Z,98546.75
2022-07-25T07:43:06.606Z,98549.16
2022-07-25T07:44:09.778Z,98547.78
2022-07-25T07:45:18.027Z,98546.19
2022-07-25T07:46:22.334Z,98542.06
2022-07-25T07:47:25.317Z,98542.00
2022-07-25T07:48:29.907Z,98535.81
2022-07-25T07:49:36.849Z,98542.81
2022-07-25T07:50:41.661Z,98538.78
2022-07-25T07:51:48.955Z,98538.50
2022-07-25T07:52:54.065Z,98543.69
2022-07-25T07:54:15.696Z,98539.31
2022-07-25T07:55:37.438Z,98533.63
2022-07-25T07:56:40.658Z,98532.75
2022-07-25T07:57:44.760Z,98527.13
2022-07-25T07:58:48.943Z,98526.81
2022-07-25T07:59:52.069Z,98527.81
2022-07-25T08:00:56.261Z,98532.34
2022-07-25T08:01:59.504Z,98520.13
2022-07-25T08:03:04.960Z,98529.03
2022-07-25T08:04:09.309Z,98523.34
2022-07-25T08:05:12.358Z,98524.13
2022-07-25T08:06:16.999Z,98526.72
2022-07-25T08:07:21.559Z,98527.53
2022-07-25T08:08:30.897Z,98532.13
2022-07-25T08:09:34.532Z,98525.69
2022-07-25T08:10:41.522Z,98516.47
2022-07-25T08:11:44.672Z,98519.50
2022-07-25T08:12:49.558Z,98522.03
2022-07-25T08:13:52.934Z,98521.78
2022-07-25T08:14:57.099Z,98523.97
2022-07-25T08:16:03.532Z,98520.72
2022-07-25T08:17:07.973Z,98521.50
2022-07-25T08:18:18.310Z,98521.47
2022-07-25T08:19:22.297Z,98520.56
2022-07-25T08:20:38.008Z,98524.28
2022-07-25T08:21:43.458Z,98525.38
2022-07-25T08:22:56.292Z,98528.06
2022-07-25T08:24:01.102Z,98523.00
2022-07-25T08:25:05.570Z,98523.53
2022-07-25T08:26:09.727Z,98528.47
2022-07-25T08:27:12.852Z,98525.88
2022-07-25T08:28:17.199Z,98526.19
2022-07-25T08:29:23.886Z,98529.50
2022-07-25T08:30:31.993Z,98534.47
2022-07-25T08:31:36.215Z,98528.31
2022-07-25T08:32:47.967Z,98526.47
2022-07-25T08:33:52.351Z,98528.06
2022-07-25T08:34:55.549Z,98524.03
2022-07-25T08:36:00.005Z,98532.66
2022-07-25T08:37:04.101Z,98531.28
2022-07-25T08:38:11.836Z,98527.28
2022-07-25T08:39:16.132Z,98533.19
2022-07-25T08:40:22.758Z,98523.50
2022-07-25T08:41:27.037Z,98523.78
2022-07-25T08:42:30.619Z,98522.91
2022-07-25T08:43:38.013Z,98516.34
2022-07-25T08:44:43.307Z,98521.09
2022-07-25T08:45:49.529Z,98518.34
2022-07-25T08:46:52.962Z,98522.13
2022-07-25T08:47:57.840Z,98518.25
2022-07-25T08:49:00.977Z,98522.47
2022-07-25T08:50:06.861Z,98522.38
2022-07-25T08:51:10.410Z,98525.50
2022-07-25T08:52:15.347Z,98514.28
2022-07-25T08:53:37.404Z,98516.09
2022-07-25T08:54:42.478Z,98514.59
2022-07-25T08:55:47.024Z,98512.38
2022-07-25T08:56:50.118Z,98516.44
2022-07-25T08:57:55.229Z,98510.09
2022-07-25T08:58:59.241Z,98507.41
2022-07-25T09:00:03.969Z,98514.03
2022-07-25T09:01:08.441Z,98508.34
2022-07-25T09:02:13.938Z,98501.25
2022-07-25T09:03:18.330Z,98508.16
2022-07-25T09:04:22.701Z,98510.94
2022-07-25T09:05:27.199Z,98514.53
2022-07-25T09:06:31.263Z,98511.81
2022-07-25T09:07:36.139Z,98508.72
2022-07-25T09:08:52.734Z,98517.09
2022-07-25T09:09:55.890Z,98502.53
2022-07-25T09:11:00.018Z,98506.63
2022-07-25T09:12:03.656Z,98509.34
2022-07-25T09:13:11.159Z,98500.22
2022-07-25T09:14:15.602Z,98503.72
2022-07-25T09:15:24.488Z,98501.28
2022-07-25T09:16:34.213Z,98489.84
2022-07-25T09:17:38.847Z,98493.94
2022-07-25T09:18:45.659Z,98495.41
2022-07-25T09:19:55.247Z,98489.44
2022-07-25T09:21:03.529Z,98496.09
2022-07-25T09:22:10.404Z,98491.63
2022-07-25T09:23:16.709Z,98488.19
2022-07-25T09:24:22.887Z,98483.78
2022-07-25T09:25:30.087Z,98489.03
2022-07-25T09:26:45.171Z,98493.22
2022-07-25T09:27:49.480Z,98483.19
2022-07-25T09:28:54.178Z,98491.16
2022-07-25T09:30:00.238Z,98488.56
2022-07-25T09:31:03.464Z,98488.16
2022-07-25T09:32:16.678Z,98488.97
2022-07-25T09:33:19.827Z,98484.72
2022-07-25T09:34:35.024Z,98479.06
2022-07-25T09:35:40.859Z,98482.63
2022-07-25T09:36:52.951Z,98476.06
2022-07-25T09:37:57.251Z,98486.94
2022-07-25T09:39:05.361Z,98479.16
2022-07-25T09:40:20.075Z,98483.44
2022-07-25T09:41:24.581Z,98473.31
2022-07-25T09:42:32.486Z,98475.47
2022-07-25T09:43:40.784Z,98472.88
2022-07-25T09:44:47.006Z,98482.97
2022-07-25T09:45:51.483Z,98483.66
2022-07-25T09:46:55.859Z,98481.16
2022-07-25T09:48:02.344Z,98475.56
2022-07-25T09:49:05.508Z,98476.81
2022-07-25T09:50:10.827Z,98473.81
2022-07-25T09:51:14.990Z,98470.66
2022-07-25T09:52:19.924Z,98470.63
2022-07-25T09:53:24.758Z,98470.16
2022-07-25T09:54:28.251Z,98469.09
2022-07-25T09:55:34.071Z,98466.66
2022-07-25T09:56:37.175Z,98476.31
2022-07-25T09:57:41.554Z,98471.38
2022-07-25T09:58:44.604Z,98463.44
2022-07-25T09:59:48.798Z,98461.53
2022-07-25T10:00:54.172Z,98463.72
2022-07-25T10:02:23.305Z,98458.66
2022-07-25T10:03:34.451Z,98448.09
2022-07-25T10:04:46.840Z,98450.22
2022-07-25T10:06:04.980Z,98447.31
2022-07-25T10:07:10.059Z,98447.91
2022-07-25T10:08:14.749Z,98454.84
2022-07-25T10:09:17.937Z,98448.59
2022-07-25T10:10:25.202Z,98454.41
2022-07-25T10:11:31.710Z,98453.44
2022-07-25T10:12:35.172Z,98454.03
2022-07-25T10:13:39.449Z,98452.06
2022-07-25T10:14:42.607Z,98450.13
2022-07-25T10:15:49.352Z,98446.31
2022-07-25T10:16:52.771Z,98440.06
2022-07-25T10:18:05.525Z,98446.03
2022-07-25T10:19:11.028Z,98443.97
2022-07-25T10:20:14.197Z,98439.91
2022-07-25T10:21:26.082Z,98439.06
2022-07-25T10:22:55.738Z,98443.28
2022-07-25T10:24:18.842Z,98441.94
2022-07-25T10:25:21.877Z,98438.63
2022-07-25T10:26:26.267Z,98437.56
2022-07-25T10:27:42.699Z,98438.78
2022-07-25T10:28:49.958Z,98439.47
2022-07-25T10:29:54.595Z,98438.53
2022-07-25T10:30:59.868Z,98437.59
2022-07-25T10:32:08.113Z,98430.84
2022-07-25T10:33:14.410Z,98437.00
2022-07-25T10:34:18.587Z,98435.00
2022-07-25T10:35:21.928Z,98439.84
2022-07-25T10:36:29.704Z,98431.22
2022-07-25T10:37:49.107Z,98427.91
2022-07-25T10:39:04.290Z,98435.56
2022-07-25T10:40:12.523Z,98425.66
2022-07-25T10:41:18.007Z,98430.34
2022-07-25T10:42:23.047Z,98425.91
2022-07-25T10:43:29.468Z,98434.19
2022-07-25T10:44:43.196Z,98427.63
2022-07-25T10:45:52.241Z,98421.16
2022-07-25T10:47:07.626Z,98418.34
2022-07-25T10:48:12.336Z,98418.94
2022-07-25T10:49:29.062Z,98419.34
2022-07-25T10:50:54.373Z,98415.78
2022-07-25T10:51:59.716Z,98415.53
2022-07-25T10:53:07.957Z,98413.16
2022-07-25T10:54:16.655Z,98414.69
2022-07-25T10:55:24.094Z,98415.13
2022-07-25T10:56:29.848Z,98411.28
2022-07-25T10:57:34.700Z,98410.47
2022-07-25T10:58:49.153Z,98406.94
2022-07-25T10:59:53.657Z,98404.97
2022-07-25T11:00:56.968Z,98400.13
2022-07-25T11:02:01.832Z,98403.69
2022-07-25T11:03:06.998Z,98404.19
2022-07-25T11:04:18.003Z,98404.00
2022-07-25T11:05:25.209Z,98403.53
2022-07-25T11:06:33.486Z,98405.84
2022-07-25T11:07:37.618Z,98398.41
2022-07-25T11:08:41.170Z,98404.31
2022-07-25T11:09:46.354Z,98399.00
2022-07-25T11:10:52.579Z,98394.38
2022-07-25T11:11:58.285Z,98392.66
2022-07-25T11:13:01.305Z,98393.94
2022-07-25T11:14:07.062Z,98385.34
2022-07-25T11:15:15.658Z,98388.97
2022-07-25T11:16:27.335Z,98384.34
2022-07-25T11:17:31.720Z,98385.22
2022-07-25T11:18:36.919Z,98371.97
2022-07-25T11:19:41.181Z,98371.91
2022-07-25T11:20:44.291Z,98375.72
2022-07-25T11:21:48.973Z,98375.66
2022-07-25T11:22:54.128Z,98373.00
2022-07-25T11:23:58.393Z,98367.38
2022-07-25T11:25:03.665Z,98372.22
2022-07-25T11:26:08.229Z,98365.94
2022-07-25T11:27:13.499Z,98374.47
2022-07-25T11:28:16.830Z,98363.69
2022-07-25T11:29:27.887Z,98369.00
2022-07-25T11:30:31.331Z,98367.81
2022-07-25T11:31:36.240Z,98371.66
2022-07-25T11:32:40.896Z,98369.63
2022-07-25T11:33:47.837Z,98375.06
2022-07-25T11:34:54.583Z,98368.72
2022-07-25T11:35:59.589Z,98364.78
2022-07-25T11:37:06.326Z,98364.50
2022-07-25T11:38:15.260Z,98360.03
2022-07-25T11:39:20.081Z,98354.44
2022-07-25T11:40:24.619Z,98359.66
2022-07-25T11:41:30.761Z,98356.16
2022-07-25T11:42:41.431Z,98355.94
2022-07-25T11:43:50.831Z,98353.41
2022-07-25T11:44:55.536Z,98350.09
2022-07-25T11:46:01.642Z,98355.34
2022-07-25T11:47:05.814Z,98356.03
2022-07-25T11:48:11.229Z,98348.22
2022-07-25T11:49:15.383Z,98352.38
2022-07-25T11:50:18.465Z,98349.84
2022-07-25T11:51:22.596Z,98343.47
2022-07-25T11:52:26.900Z,98340.00
2022-07-25T11:53:40.896Z,98340.22
2022-07-25T11:54:51.509Z,98336.47
2022-07-25T11:55:55.726Z,98337.66
2022-07-25T11:56:59.831Z,98340.50
2022-07-25T11:58:04.618Z,98333.88
2022-07-25T11:59:10.694Z,98340.16
2022-07-25T12:00:20.989Z,98327.41
2022-07-25T12:01:25.030Z,98327.13
2022-07-25T12:02:31.810Z,98325.34
2022-07-25T12:03:38.486Z,98314.75
2022-07-25T12:04:42.671Z,98323.94
2022-07-25T12:05:45.978Z,98323.09
2022-07-25T12:06:51.115Z,98322.78
2022-07-25T12:07:55.529Z,98315.75
2022-07-25T12:08:59.648Z,98312.00
2022-07-25T12:10:02.659Z,98308.09
2022-07-25T12:11:17.038Z,98306.78
2022-07-25T12:12:20.189Z,98313.81
2022-07-25T12:13:25.347Z,98311.50
2022-07-25T12:14:32.325Z,98314.88
2022-07-25T12:15:42.591Z,98317.00
2022-07-25T12:16:46.853Z,98315.56
2022-07-25T12:17:51.364Z,98306.91
2022-07-25T12:18:54.492Z,98300.25
2022-07-25T12:19:58.507Z,98296.75
2022-07-25T12:21:01.623Z,98296.63
2022-07-25T12:22:05.787Z,98303.59
2022-07-25T12:23:12.076Z,98294.28
2022-07-25T12:24:16.201Z,98297.78
2022-07-25T12:25:20.316Z,98291.97
2022-07-25T12:26:24.549Z,98292.25
2022-07-25T12:27:27.849Z,98290.34
2022-07-25T12:28:32.108Z,98289.41
2022-07-25T12:29:35.266Z,98284.72
2022-07-25T12:30:43.603Z,98295.41
2022-07-25T12:31:47.778Z,98287.13
2022-07-25T12:32:51.031Z,98287.72
2022-07-25T12:33:55.226Z,98286.38
2022-07-25T12:35:02.807Z,98285.53
2022-07-25T12:36:08.700Z,98290.53
2022-07-25T12:37:12.936Z,98287.59
2022-07-25T12:38:17.229Z,98272.50
2022-07-25T12:39:21.395Z,98276.91
2022-07-25T12:40:25.690Z,98282.63
2022-07-25T12:41:29.829Z,98277.91
2022-07-25T12:42:32.807Z,98279.06
2022-07-25T12:43:37.113Z,98283.00
2022-07-25T12:44:40.392Z,98282.22
2022-07-25T12:45:46.170Z,98277.72
2022-07-25T12:46:50.392Z,98272.94
2022-07-25T12:47:53.489Z,98280.88